Time;durP1;ratioP1;P1;durP2;ratioP2;P2;SDS_P1;SDS_P2;PMS_P1;PMS_P2;Temp;Humidity;BMP_temperature;BMP_pressure;BME280_temperature;BME280_humidity;BME280_pressure;Samples;Min_cycle;Max_cycle;Signal;HPM_P1;HPM_P2
2023/03/18 00:02:04;;;;;;;10.27;9.97;;;22.10;49.90;;;;;;5051338;28;20559;-48
2023/03/18 00:04:31;;;;;;;10.10;9.70;;;22.10;49.90;;;;;;5051302;28;20586;-48
2023/03/18 00:06:58;;;;;;;10.10;9.80;;;22.00;49.90;;;;;;5051344;28;20519;-48
2023/03/18 00:09:25;;;;;;;10.50;10.20;;;22.00;49.90;;;;;;5050976;28;20448;-49
2023/03/18 00:11:52;;;;;;;10.20;9.90;;;22.00;50.00;;;;;;5051331;28;20495;-48
2023/03/18 00:14:20;;;;;;;11.47;10.90;;;22.00;50.10;;;;;;5051415;28;20444;-49
2023/03/18 00:16:47;;;;;;;10.10;9.80;;;22.00;50.10;;;;;;5051302;28;20534;-48
2023/03/18 00:19:16;;;;;;;10.47;10.10;;;22.00;50.10;;;;;;5050833;28;20452;-47
2023/03/18 00:21:43;;;;;;;9.47;9.27;;;22.00;50.10;;;;;;5051430;28;20471;-51
2023/03/18 00:24:11;;;;;;;10.93;10.63;;;22.00;50.10;;;;;;5051470;28;20570;-52
2023/03/18 00:26:38;;;;;;;10.40;10.10;;;22.00;50.10;;;;;;5051141;28;20463;-48
2023/03/18 00:29:06;;;;;;;10.40;10.10;;;22.00;50.10;;;;;;5052661;28;20456;-48
2023/03/18 00:31:33;;;;;;;10.97;10.67;;;22.00;50.10;;;;;;5054844;28;20485;-48
2023/03/18 00:34:00;;;;;;;9.67;9.43;;;22.00;50.10;;;;;;5054985;28;20472;-48
2023/03/18 00:36:29;;;;;;;10.87;10.57;;;22.00;50.20;;;;;;5054992;28;20523;-48
2023/03/18 00:38:57;;;;;;;10.13;9.90;;;21.90;50.10;;;;;;5054448;28;20530;-48
2023/03/18 00:41:25;;;;;;;10.83;10.53;;;21.90;50.10;;;;;;5054494;28;20462;-48
2023/03/18 00:43:52;;;;;;;10.47;10.17;;;21.90;50.20;;;;;;5054672;28;20575;-48
2023/03/18 00:46:22;;;;;;;10.47;10.17;;;21.90;50.20;;;;;;5054627;28;20455;-48
2023/03/18 00:48:49;;;;;;;9.80;9.60;;;21.90;50.20;;;;;;5054136;28;20946;-48
2023/03/18 00:51:17;;;;;;;10.00;9.70;;;21.90;50.30;;;;;;5054699;28;20480;-48
2023/03/18 00:53:47;;;;;;;10.00;9.70;;;21.90;50.30;;;;;;5054651;28;20444;-48
2023/03/18 00:56:14;;;;;;;10.17;9.80;;;21.90;50.40;;;;;;5054513;28;20882;-48
2023/03/18 00:58:42;;;;;;;10.57;10.23;;;21.90;50.40;;;;;;5053959;28;20448;-48
2023/03/18 01:01:11;;;;;;;10.23;9.93;;;21.90;50.40;;;;;;5054460;28;20526;-48
2023/03/18 01:03:38;;;;;;;10.50;10.20;;;21.90;50.50;;;;;;5054341;28;20487;-48
2023/03/18 01:06:05;;;;;;;10.53;10.23;;;21.80;50.40;;;;;;5054256;28;20487;-49
2023/03/18 01:08:32;;;;;;;10.37;10.07;;;21.80;50.40;;;;;;5053941;28;20542;-48
2023/03/18 01:11:00;;;;;;;9.67;9.37;;;21.80;50.40;;;;;;5054316;28;20531;-48
2023/03/18 01:13:27;;;;;;;10.33;10.03;;;21.90;50.50;;;;;;5054011;28;20543;-48
2023/03/18 01:15:55;;;;;;;10.97;10.67;;;21.80;50.50;;;;;;5054115;28;20535;-48
2023/03/18 01:18:22;;;;;;;10.60;10.30;;;21.80;50.50;;;;;;5053615;28;20456;-48
2023/03/18 01:20:50;;;;;;;10.53;10.13;;;21.80;50.50;;;;;;5054127;28;20478;-48
2023/03/18 01:23:17;;;;;;;10.10;9.80;;;21.80;50.60;;;;;;5053793;28;20575;-48
2023/03/18 01:25:44;;;;;;;10.37;10.07;;;21.80;50.60;;;;;;5053912;28;20505;-48
2023/03/18 01:28:13;;;;;;;10.80;10.30;;;21.80;50.60;;;;;;5053560;28;20815;-48
2023/03/18 01:30:41;;;;;;;10.00;9.80;;;21.80;50.60;;;;;;5053824;28;20446;-49
2023/03/18 01:33:08;;;;;;;10.77;10.27;;;21.80;50.70;;;;;;5053738;28;20468;-49
2023/03/18 01:35:35;;;;;;;9.27;9.07;;;21.80;50.70;;;;;;5053682;28;20459;-48
2023/03/18 01:38:04;;;;;;;11.17;10.77;;;21.80;50.70;;;;;;5053353;28;20531;-48
2023/03/18 01:40:32;;;;;;;9.93;9.63;;;21.80;50.70;;;;;;5053555;28;20448;-49
2023/03/18 01:43:05;;;;;;;10.27;9.97;;;21.80;50.80;;;;;;5053411;28;20503;-48
2023/03/18 01:45:34;;;;;;;9.47;9.27;;;21.80;50.80;;;;;;5053319;28;20483;-48
2023/03/18 01:48:01;;;;;;;10.30;10.03;;;21.80;50.80;;;;;;5053157;28;20527;-48
2023/03/18 01:50:31;;;;;;;10.10;9.80;;;21.80;50.80;;;;;;5053507;28;20527;-51
2023/03/18 01:53:02;;;;;;;10.50;10.10;;;21.70;50.70;;;;;;5053555;28;20468;-50
2023/03/18 01:55:32;;;;;;;10.83;10.37;;;21.70;50.70;;;;;;5053773;28;20476;-49
2023/03/18 01:58:01;;;;;;;10.10;9.80;;;21.70;50.80;;;;;;5053113;28;20492;-52
2023/03/18 02:00:28;;;;;;;10.27;9.97;;;21.70;50.80;;;;;;5053312;28;20507;-49
2023/03/18 02:02:57;;;;;;;11.00;10.60;;;21.70;50.80;;;;;;5053047;28;20475;-49
2023/03/18 02:05:26;;;;;;;10.50;10.20;;;21.70;50.80;;;;;;5053107;28;20447;-49
2023/03/18 02:07:53;;;;;;;10.00;9.80;;;21.70;50.80;;;;;;5052904;28;20452;-50
2023/03/18 02:10:22;;;;;;;10.00;9.70;;;21.70;50.80;;;;;;5053348;28;20526;-49
2023/03/18 02:12:52;;;;;;;10.20;9.90;;;21.70;50.80;;;;;;5052955;28;20475;-49
2023/03/18 02:15:22;;;;;;;9.80;9.50;;;21.70;50.80;;;;;;5052870;28;20527;-50
2023/03/18 02:17:55;;;;;;;9.90;9.60;;;21.70;50.80;;;;;;5052729;28;20527;-50
2023/03/18 02:20:36;;;;;;;10.37;10.07;;;21.70;50.90;;;;;;5052810;28;20448;-48
2023/03/18 02:23:09;;;;;;;10.07;9.77;;;21.70;50.90;;;;;;5052732;28;20500;-50
2023/03/18 02:25:43;;;;;;;10.70;10.10;;;21.70;50.90;;;;;;5052542;28;20531;-48
2023/03/18 02:28:15;;;;;;;10.47;10.17;;;21.70;50.90;;;;;;5052868;28;20451;-49
2023/03/18 02:30:45;;;;;;;9.90;9.63;;;21.70;51.00;;;;;;5052744;28;20444;-49
2023/03/18 02:33:14;;;;;;;9.63;9.40;;;21.60;51.00;;;;;;5052252;28;20522;-49
2023/03/18 02:35:42;;;;;;;10.50;10.23;;;21.60;51.00;;;;;;5052736;28;20527;-49
2023/03/18 02:38:09;;;;;;;10.20;9.90;;;21.60;51.00;;;;;;5052368;28;20484;-49
2023/03/18 02:40:38;;;;;;;9.97;9.67;;;21.60;51.00;;;;;;5052583;28;20480;-49
2023/03/18 02:43:22;;;;;;;9.70;9.50;;;21.60;51.00;;;;;;5051989;28;20472;-51
2023/03/18 02:46:05;;;;;;;10.33;10.03;;;21.60;51.10;;;;;;5052524;28;20869;-50
2023/03/18 02:48:36;;;;;;;10.13;9.83;;;21.60;51.10;;;;;;5052269;28;20544;-50
2023/03/18 02:51:03;;;;;;;10.37;10.13;;;21.60;51.10;;;;;;5051700;28;20485;-48
2023/03/18 02:53:30;;;;;;;9.63;9.43;;;21.60;51.20;;;;;;5052086;28;20499;-50
2023/03/18 02:55:57;;;;;;;10.10;9.70;;;21.60;51.20;;;;;;5052255;28;21034;-49
2023/03/18 02:58:25;;;;;;;9.87;9.57;;;21.60;51.20;;;;;;5052056;28;20946;-49
2023/03/18 03:00:53;;;;;;;10.73;10.43;;;21.60;51.20;;;;;;5051928;28;20480;-49
2023/03/18 03:03:20;;;;;;;10.00;9.60;;;21.60;51.20;;;;;;5052058;28;20836;-48
2023/03/18 03:05:47;;;;;;;9.80;9.60;;;21.60;51.20;;;;;;5052069;28;20531;-50
2023/03/18 03:08:15;;;;;;;9.60;9.33;;;21.60;51.20;;;;;;5051848;28;20487;-49
2023/03/18 03:10:42;;;;;;;9.83;9.53;;;21.60;51.20;;;;;;5051755;28;20440;-49
2023/03/18 03:13:10;;;;;;;10.73;10.23;;;21.60;51.30;;;;;;5052137;28;20560;-50
2023/03/18 03:15:39;;;;;;;9.77;9.47;;;21.60;51.30;;;;;;5051842;28;20444;-47
2023/03/18 03:18:07;;;;;;;9.90;9.60;;;21.50;51.20;;;;;;5051623;28;20448;-50
2023/03/18 03:20:36;;;;;;;9.70;9.50;;;21.50;51.20;;;;;;5051471;28;20444;-52
2023/03/18 03:23:03;;;;;;;9.97;9.57;;;21.50;51.20;;;;;;5051841;28;20468;-52
2023/03/18 03:25:31;;;;;;;9.70;9.50;;;21.60;51.30;;;;;;5051860;28;20522;-49
2023/03/18 03:27:58;;;;;;;9.70;9.40;;;21.50;51.30;;;;;;5051622;28;20540;-49
2023/03/18 03:30:26;;;;;;;9.93;9.73;;;21.50;51.30;;;;;;5041459;28;20545;-49
2023/03/18 03:32:54;;;;;;;9.70;9.50;;;21.50;51.30;;;;;;5031696;28;20535;-48
2023/03/18 03:35:22;;;;;;;10.00;9.70;;;21.50;51.30;;;;;;5032003;28;20532;-49
2023/03/18 03:37:49;;;;;;;10.60;10.30;;;21.50;51.30;;;;;;5031488;28;20488;-49
2023/03/18 03:40:19;;;;;;;10.40;10.10;;;21.50;51.40;;;;;;5040042;28;20834;-48
2023/03/18 03:42:47;;;;;;;10.03;9.73;;;21.50;51.40;;;;;;5051568;28;20483;-49
2023/03/18 03:45:17;;;;;;;9.67;9.37;;;21.50;51.40;;;;;;5051774;28;20471;-49
2023/03/18 03:47:46;;;;;;;10.33;10.03;;;21.50;51.40;;;;;;5051461;28;20876;-48
2023/03/18 03:50:16;;;;;;;9.80;9.60;;;21.50;51.40;;;;;;5051493;28;20452;-49
2023/03/18 03:52:44;;;;;;;10.20;9.90;;;21.50;51.40;;;;;;5051724;28;20498;-50
2023/03/18 03:55:13;;;;;;;10.20;9.90;;;21.50;51.30;;;;;;5051631;28;20472;-50
2023/03/18 03:57:40;;;;;;;10.30;10.00;;;21.50;51.40;;;;;;5050773;28;20479;-48
2023/03/18 04:00:12;;;;;;;9.90;9.60;;;21.50;51.40;;;;;;5051383;28;20475;-49
2023/03/18 04:02:39;;;;;;;10.23;9.93;;;21.50;51.40;;;;;;5051076;28;20468;-49
2023/03/18 04:05:07;;;;;;;10.17;9.87;;;21.50;51.40;;;;;;5055120;28;20570;-49
2023/03/18 04:07:35;;;;;;;10.50;10.10;;;21.50;51.40;;;;;;5054986;28;20539;-51
2023/03/18 04:10:03;;;;;;;10.40;10.10;;;21.50;51.50;;;;;;5055075;28;20483;-48
2023/03/18 04:12:30;;;;;;;10.13;9.93;;;21.50;51.50;;;;;;5055164;28;20507;-48
2023/03/18 04:14:58;;;;;;;10.43;10.13;;;21.50;51.50;;;;;;5055252;28;20801;-49
2023/03/18 04:17:24;;;;;;;9.60;9.40;;;21.50;51.50;;;;;;5054842;28;20447;-48
2023/03/18 04:19:51;;;;;;;10.37;9.90;;;21.50;51.60;;;;;;5055075;28;20523;-49
2023/03/18 04:22:18;;;;;;;10.47;10.07;;;21.50;51.60;;;;;;5055029;28;20464;-48
2023/03/18 04:24:47;;;;;;;9.63;9.40;;;21.50;51.60;;;;;;5055038;28;20570;-48
2023/03/18 04:27:14;;;;;;;10.00;9.70;;;21.40;51.50;;;;;;5054680;28;20532;-49
2023/03/18 04:29:40;;;;;;;9.97;9.67;;;21.40;51.50;;;;;;5054911;28;20444;-50
2023/03/18 04:32:08;;;;;;;10.57;10.20;;;21.40;51.50;;;;;;5055092;28;20555;-50
2023/03/18 04:34:35;;;;;;;10.33;10.03;;;21.50;51.60;;;;;;5054781;28;20502;-49
2023/03/18 04:37:02;;;;;;;10.50;10.20;;;21.40;51.50;;;;;;5054675;28;20452;-50
2023/03/18 04:39:29;;;;;;;10.00;9.80;;;21.40;51.50;;;;;;5055037;28;20530;-50
2023/03/18 04:41:57;;;;;;;9.90;9.70;;;21.40;51.50;;;;;;5054741;28;20472;-48
2023/03/18 04:44:25;;;;;;;10.37;10.10;;;21.50;51.60;;;;;;5054665;28;20570;-48
2023/03/18 04:46:52;;;;;;;10.83;10.53;;;21.50;51.60;;;;;;5054238;28;20498;-49
2023/03/18 04:49:20;;;;;;;10.33;10.03;;;21.50;51.50;;;;;;5054417;28;20914;-54
2023/03/18 04:51:47;;;;;;;10.23;10.03;;;21.50;51.50;;;;;;5054576;28;20897;-52
2023/03/18 04:54:14;;;;;;;10.17;9.90;;;21.50;51.50;;;;;;5054716;28;20480;-51
2023/03/18 04:56:42;;;;;;;10.13;9.93;;;21.50;51.50;;;;;;5054150;28;20527;-51
2023/03/18 04:59:10;;;;;;;9.80;9.60;;;21.50;51.50;;;;;;5054286;28;20822;-50
2023/03/18 05:01:37;;;;;;;10.00;9.70;;;21.50;51.60;;;;;;5054179;28;20483;-49
2023/03/18 05:04:05;;;;;;;10.87;10.30;;;21.50;51.50;;;;;;5054558;28;20866;-49
2023/03/18 05:06:32;;;;;;;9.93;9.70;;;21.50;51.60;;;;;;5054222;28;20823;-48
2023/03/18 05:09:00;;;;;;;10.70;10.10;;;21.50;51.60;;;;;;5054185;28;20528;-50
2023/03/18 05:11:28;;;;;;;10.47;10.07;;;21.50;51.60;;;;;;5054199;28;20535;-50
2023/03/18 05:13:54;;;;;;;10.17;9.87;;;21.50;51.60;;;;;;5054039;28;20938;-50
2023/03/18 05:16:23;;;;;;;10.20;9.80;;;21.50;51.60;;;;;;5054102;28;20459;-51
2023/03/18 05:18:51;;;;;;;10.10;9.60;;;21.50;51.60;;;;;;5054354;28;20941;-53
2023/03/18 05:21:18;;;;;;;9.60;9.40;;;21.50;51.50;;;;;;5054282;28;20501;-55
2023/03/18 05:23:45;;;;;;;9.83;9.63;;;21.50;51.50;;;;;;5054028;28;20480;-55
2023/03/18 05:26:12;;;;;;;10.30;10.00;;;21.60;51.60;;;;;;5053761;28;20506;-53
2023/03/18 05:28:39;;;;;;;10.27;9.97;;;21.60;51.60;;;;;;5034040;28;20525;-55
2023/03/18 05:31:06;;;;;;;10.67;10.37;;;21.60;51.60;;;;;;5034077;28;20536;-53
2023/03/18 05:33:35;;;;;;;10.20;9.90;;;21.60;51.60;;;;;;5034625;28;21013;-49
2023/03/18 05:36:02;;;;;;;9.80;9.50;;;21.60;51.60;;;;;;5033918;28;20485;-48
2023/03/18 05:38:29;;;;;;;9.97;9.70;;;21.60;51.70;;;;;;5052301;28;20875;-48
2023/03/18 05:40:55;;;;;;;9.70;9.50;;;21.60;51.70;;;;;;5053660;28;20689;-50
2023/03/18 05:43:23;;;;;;;10.87;10.47;;;21.60;51.70;;;;;;5053618;28;20471;-49
2023/03/18 05:45:50;;;;;;;11.27;10.87;;;21.60;51.70;;;;;;5053567;28;20488;-48
2023/03/18 05:48:17;;;;;;;9.90;9.70;;;21.60;51.70;;;;;;5053067;28;20472;-48
2023/03/18 05:50:46;;;;;;;9.97;9.73;;;21.60;51.70;;;;;;5053450;28;20475;-49
2023/03/18 05:53:15;;;;;;;10.80;10.50;;;21.60;51.70;;;;;;5053366;28;20471;-48
2023/03/18 05:55:42;;;;;;;9.83;9.53;;;21.60;51.70;;;;;;5053140;28;20448;-48
2023/03/18 05:58:09;;;;;;;10.67;10.37;;;21.60;51.70;;;;;;5053217;28;20490;-49
2023/03/18 06:00:37;;;;;;;11.33;11.03;;;21.60;51.70;;;;;;5053373;28;20444;-47
2023/03/18 06:03:04;;;;;;;11.23;10.93;;;21.60;51.70;;;;;;5052895;28;20468;-49
2023/03/18 06:05:31;;;;;;;11.70;11.40;;;21.60;51.70;;;;;;5053161;28;20519;-49
2023/03/18 06:07:59;;;;;;;11.50;11.20;;;21.70;51.70;;;;;;5052787;28;20448;-49
2023/03/18 06:10:27;;;;;;;10.03;9.73;;;21.60;51.60;;;;;;5053178;28;20479;-49
2023/03/18 06:12:55;;;;;;;10.13;9.80;;;21.60;51.60;;;;;;5052815;28;20903;-51
2023/03/18 06:15:23;;;;;;;11.90;11.60;;;21.60;51.70;;;;;;5053140;28;20813;-49
2023/03/18 06:17:50;;;;;;;10.70;10.40;;;21.60;51.60;;;;;;5052774;28;20452;-50
2023/03/18 06:20:18;;;;;;;10.60;10.33;;;21.70;51.60;;;;;;5052944;28;20459;-51
2023/03/18 06:22:48;;;;;;;11.70;11.40;;;21.70;51.70;;;;;;5052346;28;20842;-49
2023/03/18 06:25:18;;;;;;;11.10;10.80;;;21.70;51.70;;;;;;5052244;28;20571;-48
2023/03/18 06:27:45;;;;;;;11.30;11.00;;;21.70;51.70;;;;;;5052447;28;20522;-50
2023/03/18 06:30:14;;;;;;;12.37;11.97;;;21.80;51.90;;;;;;5054674;28;20452;-56
2023/03/18 06:32:41;;;;;;;11.43;11.13;;;21.80;53.10;;;;;;5052612;28;20578;-54
2023/03/18 06:35:10;;;;;;;11.53;11.23;;;21.80;52.50;;;;;;5052753;28;20440;-53
2023/03/18 06:37:37;;;;;;;12.90;12.43;;;21.90;52.00;;;;;;5052517;28;20478;-52
2023/03/18 06:40:06;;;;;;;12.27;11.87;;;22.00;51.70;;;;;;5052541;28;20448;-49
2023/03/18 06:42:35;;;;;;;11.50;11.10;;;22.10;51.60;;;;;;5052065;28;20476;-48
2023/03/18 06:45:02;;;;;;;11.87;11.47;;;22.10;51.50;;;;;;5052318;28;20562;-51
2023/03/18 06:47:30;;;;;;;11.53;11.23;;;22.30;54.30;;;;;;5052099;28;20480;-51
2023/03/18 06:50:00;;;;;;;12.20;11.90;;;22.40;53.80;;;;;;5052331;28;20448;-51
2023/03/18 06:52:27;;;;;;;12.03;11.73;;;22.50;52.20;;;;;;5052114;28;21034;-46
2023/03/18 06:54:54;;;;;;;12.40;12.10;;;22.50;51.70;;;;;;5052379;28;20468;-49
2023/03/18 06:57:21;;;;;;;12.73;12.33;;;22.60;51.50;;;;;;5052130;28;20471;-50
2023/03/18 06:59:49;;;;;;;14.43;13.93;;;22.60;51.30;;;;;;5052184;28;20464;-50
2023/03/18 07:02:16;;;;;;;14.40;13.90;;;22.60;51.40;;;;;;5052113;28;20460;-50
2023/03/18 07:04:44;;;;;;;14.00;13.60;;;22.70;51.60;;;;;;5051979;28;20444;-50
2023/03/18 07:07:11;;;;;;;14.30;13.80;;;22.70;51.10;;;;;;5052056;28;20864;-49
2023/03/18 07:09:39;;;;;;;14.10;13.60;;;22.80;51.10;;;;;;5051961;28;20452;-55
2023/03/18 07:12:07;;;;;;;14.23;13.83;;;22.80;50.80;;;;;;5051689;28;20530;-49
2023/03/18 07:14:34;;;;;;;14.43;13.93;;;22.90;50.60;;;;;;5052003;28;20861;-51
2023/03/18 07:17:02;;;;;;;14.07;13.67;;;22.90;50.50;;;;;;5051816;28;20476;-50
2023/03/18 07:19:31;;;;;;;14.60;14.20;;;22.90;50.40;;;;;;5051496;28;20452;-48
2023/03/18 07:21:58;;;;;;;14.50;14.00;;;22.90;50.30;;;;;;5051786;28;20471;-49
2023/03/18 07:24:25;;;;;;;14.10;13.70;;;23.00;50.30;;;;;;5051842;28;20848;-48
2023/03/18 07:26:52;;;;;;;14.23;13.83;;;23.00;50.20;;;;;;5051624;28;20483;-48
2023/03/18 07:29:21;;;;;;;14.50;14.10;;;23.10;50.20;;;;;;5051394;28;20582;-51
2023/03/18 07:31:50;;;;;;;16.73;15.87;;;23.10;50.40;;;;;;5051696;28;20496;-52
2023/03/18 07:34:20;;;;;;;15.70;15.10;;;23.20;50.80;;;;;;5051988;28;20458;-52
2023/03/18 07:36:46;;;;;;;14.30;13.90;;;23.20;50.40;;;;;;5051663;28;20783;-50
2023/03/18 07:39:13;;;;;;;14.20;13.80;;;23.20;50.10;;;;;;5051189;28;20890;-49
2023/03/18 07:41:40;;;;;;;14.83;14.43;;;23.20;50.00;;;;;;5051713;28;20571;-50
2023/03/18 07:44:10;;;;;;;14.70;14.20;;;23.20;50.00;;;;;;5051400;28;20548;-53
2023/03/18 07:46:37;;;;;;;14.87;14.17;;;23.30;50.40;;;;;;5044294;28;20922;-51
2023/03/18 07:49:04;;;;;;;14.47;14.07;;;23.30;50.20;;;;;;5051243;28;20550;-56
2023/03/18 07:51:33;;;;;;;14.30;13.90;;;23.30;50.30;;;;;;5051442;28;20483;-52
2023/03/18 07:54:00;;;;;;;15.03;14.53;;;23.30;50.50;;;;;;5051976;28;20471;-52
2023/03/18 07:56:27;;;;;;;14.20;13.80;;;23.30;50.50;;;;;;5050987;28;20441;-49
2023/03/18 07:58:54;;;;;;;13.70;12.90;;;23.40;50.40;;;;;;5050189;28;20475;-48
2023/03/18 08:01:21;;;;;;;15.10;14.50;;;23.40;50.20;;;;;;5051345;28;20240;-49
2023/03/18 08:03:48;;;;;;;14.50;14.10;;;23.50;50.30;;;;;;5051414;28;20506;-48
2023/03/18 08:06:16;;;;;;;14.97;14.40;;;23.50;50.00;;;;;;5051080;28;20562;-48
2023/03/18 08:08:44;;;;;;;15.10;14.50;;;23.50;50.10;;;;;;5051062;28;20817;-49
2023/03/18 08:11:11;;;;;;;14.17;13.77;;;23.50;51.10;;;;;;5051275;28;20889;-50
2023/03/18 08:13:39;;;;;;;14.37;13.97;;;23.50;50.70;;;;;;5051167;28;21017;-50
2023/03/18 08:16:07;;;;;;;14.87;14.27;;;23.50;50.60;;;;;;5051192;28;20447;-52
2023/03/18 08:18:34;;;;;;;14.90;14.37;;;23.50;50.50;;;;;;5051062;28;20535;-52
2023/03/18 08:21:01;;;;;;;14.57;14.00;;;23.50;50.70;;;;;;5051200;28;20989;-49
2023/03/18 08:23:28;;;;;;;15.27;14.77;;;23.50;50.40;;;;;;5050986;28;20503;-49
2023/03/18 08:25:56;;;;;;;14.40;13.90;;;23.50;50.40;;;;;;5050873;28;20508;-49
2023/03/18 08:28:24;;;;;;;14.13;13.73;;;23.50;50.40;;;;;;5050639;28;20459;-50
2023/03/18 08:30:58;;;;;;;14.33;13.93;;;23.50;50.40;;;;;;5051515;28;20538;-48
2023/03/18 08:33:25;;;;;;;14.30;13.90;;;23.50;50.40;;;;;;5051390;28;20468;-54
2023/03/18 08:35:53;;;;;;;13.60;13.10;;;23.50;50.40;;;;;;5050005;28;20436;-53
2023/03/18 08:38:20;;;;;;;15.17;14.67;;;23.50;50.70;;;;;;5050775;28;20671;-49
2023/03/18 08:40:47;;;;;;;14.77;14.30;;;23.60;50.20;;;;;;5050995;28;20831;-48
2023/03/18 08:43:20;;;;;;;14.87;14.47;;;23.70;50.10;;;;;;5050859;28;20487;-49
2023/03/18 08:45:52;;;;;;;14.60;14.20;;;23.70;50.40;;;;;;5050927;28;20480;-49
2023/03/18 08:48:19;;;;;;;15.10;14.47;;;23.70;50.10;;;;;;5050807;28;21045;-51
2023/03/18 08:50:46;;;;;;;15.00;14.20;;;23.70;50.10;;;;;;5054036;28;20813;-50
2023/03/18 08:53:16;;;;;;;14.20;13.80;;;23.70;50.10;;;;;;5054464;28;20472;-49
2023/03/18 08:55:43;;;;;;;13.97;13.57;;;23.70;50.30;;;;;;5054525;28;20501;-49
2023/03/18 08:58:11;;;;;;;14.80;14.30;;;23.70;50.40;;;;;;5054220;28;20509;-49
2023/03/18 09:00:41;;;;;;;14.70;14.07;;;23.70;50.10;;;;;;5054234;28;20499;-51
2023/03/18 09:03:18;;;;;;;14.77;14.27;;;23.60;50.10;;;;;;5054513;28;20468;-47
2023/03/18 09:05:48;;;;;;;16.50;15.40;;;23.50;50.20;;;;;;5054365;28;20495;-50
2023/03/18 09:08:15;;;;;;;15.17;14.47;;;23.50;50.30;;;;;;5054229;28;20483;-48
2023/03/18 09:10:44;;;;;;;15.40;14.90;;;23.50;50.30;;;;;;5054313;28;21015;-50
2023/03/18 09:13:11;;;;;;;16.33;15.37;;;23.40;50.80;;;;;;5054072;28;20514;-47
2023/03/18 09:15:41;;;;;;;14.90;14.20;;;23.40;50.30;;;;;;5054167;28;20436;-47
2023/03/18 09:18:08;;;;;;;15.70;15.20;;;23.40;50.10;;;;;;5053980;28;20542;-48
2023/03/18 09:20:39;;;;;;;16.10;15.50;;;23.50;50.10;;;;;;5054429;28;20852;-48
2023/03/18 09:23:06;;;;;;;16.63;15.93;;;23.50;49.90;;;;;;5054058;28;20468;-49
2023/03/18 09:25:33;;;;;;;15.03;14.10;;;23.50;49.80;;;;;;5053743;28;20507;-47
2023/03/18 09:28:01;;;;;;;17.33;16.53;;;23.50;49.80;;;;;;5053628;28;20515;-49
2023/03/18 09:30:29;;;;;;;16.87;15.80;;;23.60;50.20;;;;;;5053863;28;20484;-48
2023/03/18 09:32:58;;;;;;;17.93;16.60;;;23.60;51.20;;;;;;5053555;28;20492;-52
2023/03/18 09:35:27;;;;;;;18.23;16.47;;;23.60;51.80;;;;;;5053726;28;20454;-47
2023/03/18 09:37:55;;;;;;;17.80;16.60;;;23.60;52.80;;;;;;5053763;28;20445;-49
2023/03/18 09:40:26;;;;;;;17.63;16.20;;;23.60;53.50;;;;;;5053725;28;20535;-51
2023/03/18 09:43:05;;;;;;;18.10;17.00;;;23.60;53.50;;;;;;5053146;28;20562;-51
2023/03/18 09:45:37;;;;;;;17.23;15.63;;;23.60;53.70;;;;;;5053711;28;21062;-50
2023/03/18 09:48:44;;;;;;;19.23;17.80;;;23.60;54.00;;;;;;5053388;28;20871;-53
2023/03/18 09:51:22;;;;;;;16.17;15.20;;;23.60;54.30;;;;;;5053409;28;20454;-53
2023/03/18 09:53:55;;;;;;;15.73;14.83;;;23.50;53.60;;;;;;5052203;28;20451;-49
2023/03/18 09:56:26;;;;;;;16.07;15.10;;;23.60;53.90;;;;;;5053464;28;20447;-49
2023/03/18 09:58:56;;;;;;;17.33;16.20;;;23.60;53.80;;;;;;5052901;28;20526;-53
2023/03/18 10:01:27;;;;;;;18.80;17.50;;;23.60;53.80;;;;;;5052351;28;20476;-55
2023/03/18 10:04:01;;;;;;;21.90;19.93;;;23.60;53.70;;;;;;5051993;28;20882;-50
2023/03/18 10:06:28;;;;;;;15.93;15.10;;;23.50;53.80;;;;;;5052324;28;20735;-52
2023/03/18 10:09:03;;;;;;;17.03;16.03;;;23.40;53.00;;;;;;5052996;28;20488;-56
2023/03/18 10:11:33;;;;;;;16.27;15.57;;;23.40;53.40;;;;;;5053102;28;20484;-50
2023/03/18 10:14:29;;;;;;;17.00;16.10;;;23.40;53.90;;;;;;5053242;28;20880;-52
2023/03/18 10:17:05;;;;;;;16.33;15.43;;;23.20;53.20;;;;;;5040438;28;20874;-49
2023/03/18 10:19:36;;;;;;;16.70;15.80;;;23.20;53.30;;;;;;5052990;28;20467;-53
2023/03/18 10:22:18;;;;;;;16.20;15.13;;;23.20;53.50;;;;;;5052926;28;20784;-50
2023/03/18 10:24:52;;;;;;;16.30;15.57;;;23.20;53.50;;;;;;5052877;28;20439;-51
2023/03/18 10:27:24;;;;;;;14.73;14.23;;;23.10;53.20;;;;;;5052654;28;20515;-50
2023/03/18 10:30:02;;;;;;;15.53;14.93;;;23.10;53.00;;;;;;5052764;28;20976;-49
2023/03/18 10:32:39;;;;;;;15.83;15.03;;;23.10;53.20;;;;;;5052606;28;20830;-49
2023/03/18 10:35:25;;;;;;;15.93;15.33;;;23.10;53.30;;;;;;5052739;28;20440;-52
2023/03/18 10:38:01;;;;;;;15.87;15.27;;;23.00;53.40;;;;;;5052510;28;20487;-50
2023/03/18 10:40:35;;;;;;;15.67;15.10;;;22.90;53.50;;;;;;5052532;28;20479;-49
2023/03/18 10:43:04;;;;;;;16.23;15.40;;;22.80;53.60;;;;;;5052295;28;20514;-53
2023/03/18 10:45:33;;;;;;;15.43;14.83;;;22.80;53.70;;;;;;5052447;28;20808;-50
2023/03/18 10:48:07;;;;;;;15.97;15.10;;;22.70;53.70;;;;;;5052557;28;20511;-61
2023/03/18 10:50:37;;;;;;;16.37;15.57;;;22.60;53.90;;;;;;5052451;28;20444;-54
2023/03/18 10:53:14;;;;;;;15.80;15.10;;;22.60;53.90;;;;;;5052322;28;20500;-51
2023/03/18 10:55:53;;;;;;;16.10;15.50;;;22.50;53.90;;;;;;5052293;28;20844;-49
2023/03/18 10:58:20;;;;;;;16.53;15.83;;;22.50;53.70;;;;;;5052152;28;20451;-50
2023/03/18 11:00:48;;;;;;;16.10;15.50;;;22.40;53.90;;;;;;5052391;28;20908;-49
2023/03/18 11:03:24;;;;;;;15.77;15.20;;;22.40;53.90;;;;;;5051299;28;20470;-50
2023/03/18 11:05:54;;;;;;;15.90;15.40;;;22.40;55.80;;;;;;5052240;28;20439;-49
2023/03/18 11:08:33;;;;;;;16.53;15.80;;;22.50;54.50;;;;;;5052051;28;20874;-49
2023/03/18 11:11:17;;;;;;;15.87;15.07;;;22.50;54.20;;;;;;5052009;28;20501;-50
2023/03/18 11:13:51;;;;;;;17.50;16.70;;;22.50;54.50;;;;;;5049287;28;20479;-52
2023/03/18 11:16:29;;;;;;;23.07;22.17;;;22.60;54.20;;;;;;5051878;28;20450;-51
2023/03/18 11:18:58;;;;;;;22.77;21.77;;;22.70;54.00;;;;;;5051924;28;20448;-49
2023/03/18 11:21:28;;;;;;;22.73;21.83;;;22.70;53.80;;;;;;5051653;28;20452;-49
2023/03/18 11:24:09;;;;;;;22.53;21.63;;;22.80;53.70;;;;;;5051892;28;20448;-53
2023/03/18 11:26:48;;;;;;;22.10;21.40;;;22.80;53.50;;;;;;5051686;28;20510;-51
2023/03/18 11:29:22;;;;;;;22.13;21.10;;;22.80;53.30;;;;;;5051589;28;20527;-51
2023/03/18 11:31:53;;;;;;;22.13;21.23;;;22.80;53.40;;;;;;5051398;28;20836;-51
2023/03/18 11:34:21;;;;;;;21.00;20.20;;;22.80;53.30;;;;;;5051859;28;20455;-52
2023/03/18 11:37:00;;;;;;;22.57;21.77;;;22.90;53.20;;;;;;5051675;28;20440;-51
2023/03/18 11:39:29;;;;;;;21.97;21.10;;;22.90;53.10;;;;;;5051467;28;20454;-52
2023/03/18 11:41:58;;;;;;;22.23;21.43;;;22.90;53.00;;;;;;5051128;28;20472;-51
2023/03/18 11:44:30;;;;;;;21.87;21.07;;;22.90;52.70;;;;;;5051579;28;20873;-50
2023/03/18 11:47:04;;;;;;;21.70;20.80;;;22.90;52.70;;;;;;5051489;28;20479;-53
2023/03/18 11:49:31;;;;;;;23.30;22.30;;;23.00;52.90;;;;;;5051501;28;20448;-50
2023/03/18 11:52:29;;;;;;;21.70;20.90;;;23.00;52.80;;;;;;5051041;28;20551;-51
2023/03/18 11:55:22;;;;;;;21.23;20.43;;;23.00;52.70;;;;;;5051255;28;20486;-53
2023/03/18 11:58:17;;;;;;;20.83;20.07;;;23.00;52.80;;;;;;5048753;28;20455;-51
2023/03/18 12:00:51;;;;;;;21.10;20.30;;;23.00;52.80;;;;;;5051442;28;20448;-52
2023/03/18 12:03:53;;;;;;;22.70;21.80;;;23.10;52.90;;;;;;5050644;28;20554;-52
2023/03/18 12:06:21;;;;;;;22.30;21.40;;;23.10;52.70;;;;;;5050920;28;20482;-50
2023/03/18 12:09:03;;;;;;;22.07;21.27;;;23.10;52.70;;;;;;5051212;28;20440;-55
2023/03/18 12:12:03;;;;;;;22.00;21.23;;;23.10;52.60;;;;;;5051417;28;20444;-51
2023/03/18 12:14:37;;;;;;;21.30;20.60;;;23.10;52.40;;;;;;5050990;28;20513;-51
2023/03/18 12:17:17;;;;;;;21.57;20.80;;;23.10;52.10;;;;;;5051126;28;20444;-55
2023/03/18 12:20:01;;;;;;;24.10;23.17;;;23.20;51.90;;;;;;5051238;28;20448;-54
2023/03/18 12:22:47;;;;;;;22.70;21.90;;;23.20;51.60;;;;;;5051134;28;20464;-53
2023/03/18 12:25:30;;;;;;;21.10;20.40;;;23.20;51.30;;;;;;5053638;28;20463;-50
2023/03/18 12:28:03;;;;;;;22.17;21.23;;;23.20;51.10;;;;;;5054955;28;20479;-55
2023/03/18 12:30:56;;;;;;;21.83;21.03;;;23.20;51.00;;;;;;5055611;28;20479;-56
2023/03/18 12:33:39;;;;;;;21.63;20.83;;;23.20;50.90;;;;;;5055449;28;20849;-57
2023/03/18 12:36:17;;;;;;;22.40;21.60;;;23.20;50.70;;;;;;5054932;28;20444;-51
2023/03/18 12:39:11;;;;;;;21.00;20.13;;;23.20;50.60;;;;;;5054719;28;20513;-51
2023/03/18 12:41:50;;;;;;;21.90;21.20;;;23.20;50.50;;;;;;5054666;28;20535;-51
2023/03/18 12:44:28;;;;;;;21.40;20.60;;;23.20;50.40;;;;;;5054860;28;20531;-52
2023/03/18 12:47:00;;;;;;;21.57;20.87;;;23.10;50.30;;;;;;5049456;28;20563;-60